Flight Track Log - Related Links

Times and Time Zones

All times are in EDT time to prevent confusion due to time zone crossing. See the SWA3497 flight status page for this flight to view local times or setup timezone preferences in your user account.

Time Position Orientation Groundspeed Altitude Reporting Facility
EDT Latitude Longitude Course Direction KTS MPH feet Rate Location/Type
Tue 12:28:00 PM 41.7833 -87.7833 217° Southwest 160 184 2,000  Level Chicago TRACON
Tue 12:29:06 PM 41.7333 -87.8333 217° Southwest 216 249 3,100 1,830 Climbing Chicago TRACON
Tue 12:30:21 PM 41.6700 -87.8753 206° Southwest 246 283 6,300 2,779 Climbing Chicago Center
Tue 12:31:22 PM 41.5969 -87.8331 157° South 285 328 9,400 2,780 Climbing Chicago Center
Tue 12:32:24 PM 41.5183 -87.7847 155° Southeast 306 352 12,000 1,258 Climbing Chicago Center
Tue 12:33:26 PM 41.4383 -87.7358 155° Southeast 313 360 12,000 1,065 Level Chicago Center
Tue 12:34:28 PM 41.3564 -87.7244 174° South 296 341 14,200 1,561 Climbing Chicago Center
Tue 12:35:29 PM 41.2553 -87.7250 180° South 301 346 15,200 1,415 Climbing Chicago Center
Tue 12:36:31 PM 41.1689 -87.7225 179° South 306 352 17,100 2,274 Climbing Chicago Center
Tue 12:37:33 PM 41.0797 -87.7086 173° South 319 367 19,900 1,902 Climbing Chicago Center
Tue 12:38:34 PM 40.9886 -87.6967 174° South 326 375 21,000 537 Climbing Chicago Center
Tue 12:39:36 PM 40.8933 -87.6839 174° South 338 389 21,000  Level Chicago Center
Tue 12:40:38 PM 40.7925 -87.6697 174° South 358 412 21,000  Level Chicago Center
Tue 12:41:40 PM 40.6933 -87.6558 174° South 362 417 21,000  Level Chicago Center
Tue 12:42:41 PM 40.5761 -87.6408 174° South 355 409 21,000  Level Chicago Center
Tue 12:43:43 PM 40.4778 -87.6264 174° South 356 410 21,000  Level Chicago Center
Tue 12:44:45 PM 40.3853 -87.5731 156° South 383 441 21,000  Level Chicago Center
Tue 12:45:47 PM 40.3086 -87.4736 135° Southeast 388 447 21,000  Level Chicago Center
Tue 12:46:49 PM 40.2328 -87.3694 134° Southeast 393 452 21,000  Level Chicago Center
Tue 12:47:50 PM 40.1556 -87.2656 134° Southeast 397 457 21,000  Level Chicago Center
Tue 12:48:50 PM 40.0742 -87.1503 133° Southeast 404 465 21,000  Level Indianapolis Center
Tue 12:49:52 PM 39.9983 -87.0372 131° Southeast 410 472 21,000  Level Indianapolis Center
Tue 12:50:53 PM 39.9047 -86.9672 150° Southeast 396 456 21,000  Level Indianapolis Center
Tue 12:51:55 PM 39.8056 -86.9117 157° South 387 445 21,000  Level Indianapolis Center
Tue 12:52:57 PM 39.6850 -86.8417 156° South 392 451 21,000  Level Indianapolis Center
Tue 12:53:58 PM 39.5850 -86.7858 157° South 392 451 21,000  Level Indianapolis Center
Tue 12:55:00 PM 39.4836 -86.7294 157° South 392 451 21,000  Level Indianapolis Center
Tue 12:56:02 PM 39.3825 -86.6708 156° South 394 453 21,000  Level Indianapolis Center
Tue 12:57:03 PM 39.2808 -86.6158 157° South 394 453 21,000  Level Indianapolis Center
Tue 12:58:05 PM 39.1800 -86.5586 156° South 393 452 21,000 -629 Level Indianapolis Center
Tue 12:59:07 PM 39.0794 -86.5036 157° South 392 451 19,700 -1,659 Descending Indianapolis Center
Tue 01:00:08 PM 38.9822 -86.4486 156° South 384 442 17,600 -2,195 Descending Indianapolis Center
Tue 01:01:10 PM 38.8872 -86.3964 157° South 375 432 15,200 -2,274 Descending Indianapolis Center
Tue 01:02:12 PM 38.7956 -86.3461 157° South 363 418 12,900 -2,000 Descending Indianapolis Center
Tue 01:03:13 PM 38.7178 -86.2764 145° Southeast 347 399 11,100 -1,415 Descending Indianapolis Center
Tue 01:04:15 PM 38.6431 -86.1742 133° Southeast 335 386 10,000 -1,240 Descending Indianapolis Center
Tue 01:05:14 PM 38.5917 -86.1017 132° Southeast 279 321 8,600 -1,367 Descending FAA TRACON SMA TRACON (SMA)
Tue 01:05:34 PM 38.5747 -86.0806 136° Southeast 278 320 8,200 -1,231 Descending FAA TRACON SMA TRACON (SMA)
Tue 01:05:53 PM 38.5589 -86.0583 132° Southeast 276 318 7,800 -1,200 Descending FAA TRACON SMA TRACON (SMA)
Tue 01:06:14 PM 38.5431 -86.0361 132° Southeast 273 314 7,400 -1,317 Descending FAA TRACON SMA TRACON (SMA)
Tue 01:06:34 PM 38.5236 -86.0094 133° Southeast 270 311 6,900 -1,350 Descending FAA TRACON SMA TRACON (SMA)
Tue 01:06:54 PM 38.5078 -85.9881 133° Southeast 269 310 6,500 -1,200 Descending FAA TRACON SMA TRACON (SMA)
Tue 01:07:14 PM 38.4914 -85.9675 136° Southeast 266 306 6,100 -1,231 Descending FAA TRACON SMA TRACON (SMA)
Tue 01:07:33 PM 38.4728 -85.9411 132° Southeast 262 302 5,700 -1,050 Descending FAA TRACON SMA TRACON (SMA)
Tue 01:07:54 PM 38.4578 -85.9208 133° Southeast 256 295 5,400 -1,024 Descending FAA TRACON SMA TRACON (SMA)
Tue 01:08:14 PM 38.4425 -85.9003 133° Southeast 257 296 5,000 -750 Descending FAA TRACON SMA TRACON (SMA)
Tue 01:08:34 PM 38.4244 -85.8750 132° Southeast 254 292 4,900 -150 Descending FAA TRACON SMA TRACON (SMA)
Tue 01:08:54 PM 38.4094 -85.8556 135° Southeast 251 289 4,900 -308 Level FAA TRACON SMA TRACON (SMA)
Tue 01:09:13 PM 38.3947 -85.8356 133° Southeast 251 289 4,700 -1,050 Descending FAA TRACON SMA TRACON (SMA)
Tue 01:09:34 PM 38.3750 -85.8114 136° Southeast 255 293 4,200 -1,317 Descending FAA TRACON SMA TRACON (SMA)
Tue 01:09:54 PM 38.3550 -85.8039 164° South 253 291 3,800 -1,200 Descending FAA TRACON SMA TRACON (SMA)
Tue 01:10:14 PM 38.3350 -85.7981 167° South 242 278 3,400 -1,350 Descending FAA TRACON SMA TRACON (SMA)
Tue 01:10:34 PM 38.3108 -85.7900 165° South 233 268 2,900 -1,231 Descending FAA TRACON SMA TRACON (SMA)
Tue 01:10:53 PM 38.2933 -85.7842 165° South 218 251 2,600 -900 Descending FAA TRACON SMA TRACON (SMA)
Tue 01:11:14 PM 38.2775 -85.7786 165° South 197 227 2,300 -1,024 Descending FAA TRACON SMA TRACON (SMA)
Tue 01:11:34 PM 38.2600 -85.7731 166° South 171 197 1,900 -900 Descending FAA TRACON SMA TRACON (SMA)
Tue 01:11:54 PM 38.2478 -85.7689 165° South 154 177 1,700 -600 Descending FAA TRACON SMA TRACON (SMA)
Tue 01:12:14 PM 38.2369 -85.7653 165° South 134 154 1,500 -732 Descending FAA TRACON SMA TRACON (SMA)
Tue 01:12:35 PM 38.2233 -85.7608 166° South 129 148 1,200 -732 Descending FAA TRACON SMA TRACON (SMA)
Tue 01:12:55 PM 38.2125 -85.7569 164° South 131 151 1,000 -769 Descending FAA TRACON SMA TRACON (SMA)
Tue 01:13:14 PM 38.1994 -85.7525 165° South 127 146 700 -615 Descending FAA TRACON SMA TRACON (SMA)
Tue 01:13:34 PM 38.1892 -85.7492 166° South 125 144 600 -300 Descending FAA TRACON SMA TRACON (SMA)
Tue 01:15:00 PM 38.1741 -85.7365 28° Northeast  Level Estimated

Login

Don't have an account? Register now (free) for customized features, flight alerts, and more!